Time;durP1;ratioP1;P1;durP2;ratioP2;P2;SDS_P1;SDS_P2;PMS_P1;PMS_P2;Temp;Humidity;BMP_temperature;BMP_pressure;BME280_temperature;BME280_humidity;BME280_pressure;Samples;Min_cycle;Max_cycle;Signal;HPM_P1;HPM_P2
2023/06/27 00:01:22;;;;;;;;;;;13.60;99.90;;;;;;5076614;28;20044;-59
2023/06/27 00:03:51;;;;;;;3.58;0.90;;;13.60;99.90;;;;;;5075160;28;20671;-57
2023/06/27 00:06:19;;;;;;;3.80;1.40;;;13.60;99.90;;;;;;5079000;28;20841;-61
2023/06/27 00:08:47;;;;;;;3.35;1.48;;;13.70;99.90;;;;;;5062942;28;20036;-61
2023/06/27 00:11:13;;;;;;;4.55;1.20;;;13.70;99.90;;;;;;5070995;28;20440;-59
2023/06/27 00:13:41;;;;;;;;;;;13.70;99.90;;;;;;5066520;28;20203;-62
2023/06/27 00:16:13;;;;;;;4.45;1.33;;;13.60;99.90;;;;;;5072954;28;19923;-54
2023/06/27 00:18:40;;;;;;;3.00;1.30;;;13.60;99.90;;;;;;5051245;28;20044;-62
2023/06/27 00:21:06;;;;;;;2.10;1.15;;;13.60;99.90;;;;;;5060269;28;20036;-59
2023/06/27 00:23:34;;;;;;;5.95;1.55;;;13.50;99.90;;;;;;5051199;28;20040;-58
2023/06/27 00:26:01;;;;;;;6.72;1.50;;;13.50;99.90;;;;;;5054248;28;20049;-60
2023/06/27 00:28:27;;;;;;;3.42;1.17;;;13.40;99.90;;;;;;5056784;28;20070;-59
2023/06/27 00:30:53;;;;;;;6.30;1.30;;;13.40;99.90;;;;;;5059413;28;20524;-60
2023/06/27 00:33:18;;;;;;;;;;;13.20;99.90;;;;;;5056889;28;20053;-60
2023/06/27 00:35:44;;;;;;;4.28;1.52;;;13.20;99.90;;;;;;5056620;28;19927;-60
2023/06/27 00:38:10;;;;;;;;;;;13.20;99.90;;;;;;5060816;28;20105;-62
2023/06/27 00:40:36;;;;;;;2.92;1.10;;;13.20;99.90;;;;;;5029950;28;19927;-57
2023/06/27 00:43:01;;;;;;;;;;;13.20;99.90;;;;;;5055115;28;20072;-60
2023/06/27 00:45:27;;;;;;;4.53;1.30;;;13.20;99.90;;;;;;5053707;28;19924;-60
2023/06/27 00:47:53;;;;;;;;;;;13.10;99.90;;;;;;5059073;28;20488;-58
2023/06/27 00:50:22;;;;;;;3.95;1.13;;;13.00;99.90;;;;;;5055458;28;20425;-58
2023/06/27 00:52:49;;;;;;;3.38;1.58;;;12.90;99.90;;;;;;5065301;28;20052;-63
2023/06/27 00:55:16;;;;;;;3.15;1.38;;;12.80;99.90;;;;;;5055252;28;20124;-59
2023/06/27 00:57:42;;;;;;;2.25;1.25;;;12.90;99.90;;;;;;5055817;28;20049;-63
2023/06/27 01:00:13;;;;;;;;;;;12.90;99.90;;;;;;5058054;28;20048;-59
2023/06/27 01:02:39;;;;;;;3.15;1.10;;;13.00;99.90;;;;;;5058477;28;20015;-60
2023/06/27 01:05:05;;;;;;;;;;;13.00;99.90;;;;;;5055354;28;20528;-58
2023/06/27 01:07:39;;;;;;;3.75;1.23;;;12.90;99.90;;;;;;5056706;28;19924;-57
2023/06/27 01:10:21;;;;;;;3.85;1.33;;;12.90;99.90;;;;;;5055308;28;20443;-57
2023/06/27 01:12:56;;;;;;;4.82;1.95;;;13.00;99.90;;;;;;5057188;28;20044;-59
2023/06/27 01:15:22;;;;;;;4.28;1.40;;;12.90;99.90;;;;;;5059958;28;20131;-61
2023/06/27 01:17:48;;;;;;;;;;;13.00;99.90;;;;;;5064349;28;20470;-59
2023/06/27 01:20:14;;;;;;;4.57;1.30;;;12.90;99.90;;;;;;5062849;28;19972;-61
2023/06/27 01:22:44;;;;;;;4.95;1.20;;;12.90;99.90;;;;;;5058992;28;20241;-60
2023/06/27 01:25:12;;;;;;;2.50;1.30;;;12.90;99.90;;;;;;5053756;28;20043;-59
2023/06/27 01:27:38;;;;;;;5.45;1.52;;;12.90;99.90;;;;;;5056839;28;20095;-61
2023/06/27 01:30:04;;;;;;;;;;;12.90;99.90;;;;;;5058527;28;20559;-57
2023/06/27 01:32:42;;;;;;;2.60;1.20;;;12.90;99.90;;;;;;5060845;28;19920;-54
2023/06/27 01:35:19;;;;;;;4.88;1.23;;;12.80;99.90;;;;;;5055871;28;20045;-62
2023/06/27 01:37:51;;;;;;;5.05;1.55;;;12.70;99.90;;;;;;5061303;28;20147;-62
2023/06/27 01:40:19;;;;;;;2.72;1.55;;;12.70;99.90;;;;;;5055790;28;20072;-54
2023/06/27 01:42:53;;;;;;;7.13;2.17;;;12.60;99.90;;;;;;5058171;28;20033;-60
2023/06/27 01:45:19;;;;;;;7.50;1.60;;;12.50;99.90;;;;;;5058544;28;20665;-59
2023/06/27 01:47:45;;;;;;;3.88;1.20;;;12.50;99.90;;;;;;5055566;28;20033;-55
2023/06/27 01:50:12;;;;;;;;;;;12.50;99.90;;;;;;5063578;28;20606;-61
2023/06/27 01:52:37;;;;;;;2.63;1.33;;;12.60;99.90;;;;;;5061459;28;19916;-62
2023/06/27 01:55:03;;;;;;;;;;;12.60;99.90;;;;;;5059687;28;20499;-57
2023/06/27 01:57:29;;;;;;;5.05;1.48;;;12.60;99.90;;;;;;5057805;28;19927;-59
2023/06/27 01:59:54;;;;;;;;;;;12.70;99.90;;;;;;5061318;28;20083;-58
2023/06/27 02:02:20;;;;;;;3.45;1.25;;;12.70;99.90;;;;;;5057066;28;19932;-60
2023/06/27 02:04:46;;;;;;;;;;;12.70;99.90;;;;;;5058280;28;20093;-62
2023/06/27 02:07:12;;;;;;;4.82;1.30;;;12.70;99.90;;;;;;5055004;28;20231;-57
2023/06/27 02:09:37;;;;;;;;;;;12.70;99.90;;;;;;5059810;28;20504;-61
2023/06/27 02:12:04;;;;;;;3.53;1.55;;;12.70;99.90;;;;;;5060420;28;19922;-59
2023/06/27 02:14:32;;;;;;;3.83;1.45;;;12.70;99.90;;;;;;5058656;28;20080;-59
2023/06/27 02:16:58;;;;;;;6.45;2.17;;;12.70;99.90;;;;;;5059820;28;20050;-60
2023/06/27 02:19:24;;;;;;;;;;;12.70;99.90;;;;;;5067711;28;20041;-59
2023/06/27 02:21:50;;;;;;;4.88;1.45;;;12.70;99.90;;;;;;5059577;28;19959;-61
2023/06/27 02:24:16;;;;;;;4.38;1.58;;;12.70;99.90;;;;;;5058750;28;20045;-61
2023/06/27 02:26:42;;;;;;;4.45;1.85;;;12.60;99.90;;;;;;5057886;28;20072;-59
2023/06/27 02:29:08;;;;;;;;;;;12.70;99.90;;;;;;5060544;28;20223;-60
2023/06/27 02:31:33;;;;;;;3.10;1.33;;;12.70;99.90;;;;;;5057001;28;20534;-61
2023/06/27 02:34:00;;;;;;;;;;;12.70;99.90;;;;;;5060188;28;20068;-60
2023/06/27 02:36:27;;;;;;;7.85;1.55;;;12.60;99.90;;;;;;5054343;28;20549;-58
2023/06/27 02:38:54;;;;;;;5.13;1.70;;;12.70;99.90;;;;;;5039469;28;20123;-58
2023/06/27 02:41:23;;;;;;;3.00;1.27;;;12.60;99.90;;;;;;5041333;28;20032;-60
2023/06/27 02:43:49;;;;;;;5.38;1.45;;;12.70;99.90;;;;;;5061545;28;20047;-61
2023/06/27 02:46:15;;;;;;;;;;;12.70;99.90;;;;;;5055395;28;20033;-60
2023/06/27 02:48:40;;;;;;;3.00;1.40;;;12.70;99.90;;;;;;5066125;28;19927;-58
2023/06/27 02:51:06;;;;;;;;;;;12.70;99.90;;;;;;5056321;28;20102;-60
2023/06/27 02:53:32;;;;;;;4.90;1.50;;;12.70;99.90;;;;;;5061110;28;19985;-62
2023/06/27 02:56:02;;;;;;;;;;;12.70;99.90;;;;;;5050420;28;20132;-60
2023/06/27 02:58:27;;;;;;;6.53;2.33;;;12.70;99.90;;;;;;5061305;28;19920;-59
2023/06/27 03:00:53;;;;;;;;;;;12.70;99.90;;;;;;5054083;28;20616;-61
2023/06/27 03:03:19;;;;;;;7.85;2.05;;;12.70;99.90;;;;;;5061809;28;19928;-58
2023/06/27 03:05:44;;;;;;;4.78;1.60;;;12.70;99.90;;;;;;5059748;28;20048;-59
2023/06/27 03:08:10;;;;;;;;;;;12.70;99.90;;;;;;5064317;28;20482;-61
2023/06/27 03:10:36;;;;;;;9.75;2.05;;;12.70;99.90;;;;;;5059089;28;19953;-60
2023/06/27 03:13:01;;;;;;;;;;;12.70;99.90;;;;;;5059382;28;20408;-61
2023/06/27 03:15:27;;;;;;;2.47;1.40;;;12.40;99.90;;;;;;5060981;28;19920;-60
2023/06/27 03:17:55;;;;;;;;;;;12.40;99.90;;;;;;5062311;28;20032;-56
2023/06/27 03:20:23;;;;;;;4.38;1.40;;;12.40;99.90;;;;;;5056391;28;20068;-59
2023/06/27 03:22:49;;;;;;;2.83;1.27;;;12.30;99.90;;;;;;5045317;28;20087;-59
2023/06/27 03:25:14;;;;;;;;;;;12.30;99.90;;;;;;5043132;28;20108;-61
2023/06/27 03:27:40;;;;;;;4.80;1.83;;;12.30;99.90;;;;;;5041868;28;19942;-59
2023/06/27 03:30:07;;;;;;;;;;;12.30;99.90;;;;;;5047710;28;20135;-61
2023/06/27 03:32:33;;;;;;;8.80;2.08;;;12.30;99.90;;;;;;5023567;28;19921;-57
2023/06/27 03:34:59;;;;;;;4.47;1.67;;;12.40;99.90;;;;;;5026518;28;20045;-57
2023/06/27 03:37:26;;;;;;;5.30;1.60;;;12.40;99.90;;;;;;5032621;28;20086;-60
2023/06/27 03:39:52;;;;;;;10.10;1.70;;;12.50;99.90;;;;;;5029043;28;20111;-56
2023/06/27 03:42:18;;;;;;;;;;;12.50;99.90;;;;;;5026960;28;20040;-58
2023/06/27 03:44:43;;;;;;;2.78;1.92;;;12.60;99.90;;;;;;5025825;28;19921;-63
2023/06/27 03:47:09;;;;;;;;;;;12.70;99.90;;;;;;5032305;28;20045;-60
2023/06/27 03:49:34;;;;;;;3.50;1.50;;;12.80;99.90;;;;;;5029989;28;20432;-60
2023/06/27 03:52:00;;;;;;;;;;;13.00;99.90;;;;;;5034203;28;20037;-58
2023/06/27 03:54:26;;;;;;;1.83;1.20;;;13.10;99.90;;;;;;5032922;28;20396;-62
2023/06/27 03:56:51;;;;;;;;;;;13.10;99.90;;;;;;5031169;28;20663;-57
2023/06/27 03:59:17;;;;;;;6.30;1.50;;;13.20;99.90;;;;;;5036278;28;19921;-56
2023/06/27 04:01:42;;;;;;;;;;;13.20;99.90;;;;;;5033854;28;20052;-61
2023/06/27 04:04:08;;;;;;;2.45;1.35;;;13.20;99.90;;;;;;5035558;28;19924;-58
2023/06/27 04:06:34;;;;;;;4.32;1.52;;;13.30;99.90;;;;;;5034346;28;20072;-58
2023/06/27 04:09:00;;;;;;;;;;;13.30;99.90;;;;;;5038334;28;20565;-62
2023/06/27 04:11:25;;;;;;;3.97;1.65;;;13.30;99.90;;;;;;5036438;28;19924;-56
2023/06/27 04:13:51;;;;;;;;;;;13.40;99.90;;;;;;5039365;28;20047;-62
2023/06/27 04:16:17;;;;;;;6.82;1.70;;;13.30;99.90;;;;;;5024452;28;20346;-57
2023/06/27 04:18:42;;;;;;;;;;;13.30;99.90;;;;;;5037317;28;20554;-54
2023/06/27 04:21:08;;;;;;;3.15;1.58;;;13.40;99.90;;;;;;5029044;28;20321;-60
2023/06/27 04:23:34;;;;;;;;;;;13.30;99.90;;;;;;5040294;28;20593;-54
2023/06/27 04:26:04;;;;;;;3.67;1.80;;;13.40;99.90;;;;;;5034474;28;19939;-59
2023/06/27 04:28:33;;;;;;;2.97;1.70;;;13.40;99.90;;;;;;5032858;28;20041;-59
2023/06/27 04:31:00;;;;;;;3.95;1.50;;;13.50;99.90;;;;;;5034878;28;20120;-62
2023/06/27 04:33:27;;;;;;;2.97;1.63;;;13.60;99.90;;;;;;5032553;28;20037;-63
2023/06/27 04:35:54;;;;;;;8.32;1.88;;;13.60;99.90;;;;;;5036707;28;20059;-59
2023/06/27 04:38:20;;;;;;;3.83;1.42;;;13.70;99.90;;;;;;5038825;28;20033;-60
2023/06/27 04:40:45;;;;;;;;;;;13.60;99.90;;;;;;5033853;28;20037;-62
2023/06/27 04:43:11;;;;;;;5.40;1.60;;;13.70;99.90;;;;;;5041179;28;20332;-58
2023/06/27 04:45:36;;;;;;;;;;;13.80;99.90;;;;;;5033932;28;20041;-58
2023/06/27 04:48:02;;;;;;;6.13;1.50;;;13.80;99.90;;;;;;5037784;28;19924;-62
2023/06/27 04:50:29;;;;;;;;;;;13.80;99.90;;;;;;5035855;28;20033;-62
2023/06/27 04:52:54;;;;;;;4.95;1.83;;;13.90;99.90;;;;;;5038821;28;20338;-59
2023/06/27 04:55:20;;;;;;;;;;;14.00;99.90;;;;;;5035989;28;20643;-61
2023/06/27 04:57:46;;;;;;;5.10;1.95;;;14.10;99.90;;;;;;5036548;28;19920;-62
2023/06/27 05:00:14;;;;;;;;;;;14.10;99.90;;;;;;5021712;28;20390;-55
2023/06/27 05:02:40;;;;;;;7.70;1.83;;;14.10;99.90;;;;;;5039208;28;19963;-61
2023/06/27 05:05:07;;;;;;;;;;;14.10;99.90;;;;;;5031009;28;20037;-56
2023/06/27 05:07:34;;;;;;;5.00;2.80;;;14.20;99.90;;;;;;5042178;28;20035;-60
2023/06/27 05:10:00;;;;;;;8.20;2.70;;;14.20;99.90;;;;;;5034405;28;20048;-56
2023/06/27 05:12:25;;;;;;;;;;;14.20;99.90;;;;;;5035165;28;20037;-59
2023/06/27 05:14:51;;;;;;;5.00;2.08;;;14.30;99.90;;;;;;5036929;28;20312;-58
2023/06/27 05:17:16;;;;;;;6.93;2.80;;;14.40;99.90;;;;;;5022325;28;20051;-59
2023/06/27 05:19:42;;;;;;;11.10;2.65;;;14.50;99.90;;;;;;5029102;28;20037;-61
2023/06/27 05:22:08;;;;;;;;;;;14.60;99.90;;;;;;5033715;28;20842;-62
2023/06/27 05:24:33;;;;;;;9.18;2.47;;;14.50;99.90;;;;;;5033730;28;20177;-58
2023/06/27 05:26:59;;;;;;;;;;;14.60;99.90;;;;;;5033490;28;20040;-61
2023/06/27 05:29:25;;;;;;;12.38;2.58;;;14.60;99.90;;;;;;5039019;28;20460;-60
2023/06/27 05:31:51;;;;;;;6.00;2.28;;;14.60;99.90;;;;;;5029372;28;20037;-57
2023/06/27 05:34:16;;;;;;;;;;;14.60;99.90;;;;;;5038238;28;20044;-54
2023/06/27 05:36:42;;;;;;;6.70;2.17;;;14.60;99.90;;;;;;5033258;28;20213;-59
2023/06/27 05:39:07;;;;;;;;;;;14.70;99.90;;;;;;5037853;28;20317;-56
2023/06/27 05:41:33;;;;;;;14.07;2.67;;;14.70;99.90;;;;;;5036864;28;19916;-58
2023/06/27 05:43:59;;;;;;;;;;;14.70;99.90;;;;;;5043848;28;20394;-56
2023/06/27 05:46:24;;;;;;;4.65;1.70;;;14.80;99.90;;;;;;5033951;28;19947;-59
2023/06/27 05:48:50;;;;;;;7.43;2.20;;;14.80;99.90;;;;;;5042542;28;20132;-59
2023/06/27 05:51:15;;;;;;;;;;;15.10;99.90;;;;;;5032248;28;20044;-61
2023/06/27 05:53:41;;;;;;;7.05;2.10;;;15.10;99.90;;;;;;5040153;28;19944;-58
2023/06/27 05:56:07;;;;;;;;;;;15.10;99.90;;;;;;5033695;28;20500;-61
2023/06/27 05:58:36;;;;;;;10.63;2.70;;;15.10;99.90;;;;;;5042726;28;19917;-53
2023/06/27 06:01:02;;;;;;;7.18;2.63;;;15.20;99.90;;;;;;5030550;28;20042;-60
2023/06/27 06:03:27;;;;;;;;;;;15.20;99.90;;;;;;5020657;28;20040;-59
2023/06/27 06:05:53;;;;;;;9.35;2.78;;;15.20;99.90;;;;;;5032424;28;19925;-60
2023/06/27 06:08:19;;;;;;;6.53;2.63;;;15.30;99.90;;;;;;5041339;28;20040;-53
2023/06/27 06:10:45;;;;;;;5.65;2.60;;;15.40;99.90;;;;;;5036106;28;20404;-58
2023/06/27 06:13:11;;;;;;;;;;;15.60;99.90;;;;;;5043511;28;20043;-61
2023/06/27 06:15:36;;;;;;;11.93;2.90;;;15.70;99.90;;;;;;5037183;28;19916;-58
2023/06/27 06:18:02;;;;;;;;;;;15.80;99.90;;;;;;5042232;28;20047;-56
2023/06/27 06:20:29;;;;;;;8.90;3.10;;;16.10;99.90;;;;;;5034533;28;20015;-63
2023/06/27 06:22:55;;;;;;;10.15;3.00;;;16.10;99.90;;;;;;5037588;28;20047;-58
2023/06/27 06:25:20;;;;;;;;;;;16.00;99.90;;;;;;5021244;28;20432;-61
2023/06/27 06:27:46;;;;;;;7.22;3.10;;;15.90;99.90;;;;;;5039234;28;19932;-60
2023/06/27 06:30:12;;;;;;;;;;;15.90;99.90;;;;;;5035139;28;20481;-60
2023/06/27 06:32:37;;;;;;;11.10;3.53;;;16.10;99.90;;;;;;5036986;28;19920;-59
2023/06/27 06:35:03;;;;;;;;;;;16.10;99.90;;;;;;5034924;28;20124;-61
2023/06/27 06:37:29;;;;;;;8.77;3.13;;;16.30;99.90;;;;;;5036101;28;19921;-61
2023/06/27 06:39:55;;;;;;;;;;;16.50;99.90;;;;;;5032080;28;20040;-60
2023/06/27 06:42:20;;;;;;;9.90;3.20;;;16.60;99.90;;;;;;5034200;28;19925;-57
2023/06/27 06:44:47;;;;;;;;;;;16.60;99.90;;;;;;5038317;28;20056;-58
2023/06/27 06:47:13;;;;;;;11.75;3.42;;;16.60;99.90;;;;;;5032897;28;19928;-59
2023/06/27 06:49:39;;;;;;;;;;;16.60;99.90;;;;;;5038150;28;20039;-63
2023/06/27 06:52:04;;;;;;;15.15;3.40;;;16.60;99.90;;;;;;5036178;28;20026;-60
2023/06/27 06:54:30;;;;;;;;;;;16.60;99.90;;;;;;5040357;28;20043;-63
2023/06/27 06:56:56;;;;;;;12.40;3.28;;;16.80;99.90;;;;;;5031405;28;19924;-60
2023/06/27 06:59:22;;;;;;;13.25;3.50;;;17.10;99.90;;;;;;5036564;28;20225;-61
2023/06/27 07:01:48;;;;;;;;;;;17.10;99.90;;;;;;5037179;28;20097;-55
2023/06/27 07:04:13;;;;;;;12.15;3.15;;;17.00;99.90;;;;;;5035519;28;19952;-53
2023/06/27 07:06:39;;;;;;;;;;;16.70;99.90;;;;;;5033544;28;20151;-59
2023/06/27 07:09:04;;;;;;;10.75;3.30;;;16.70;99.90;;;;;;5035507;28;20003;-57
2023/06/27 07:11:30;;;;;;;;;;;16.60;99.90;;;;;;5023398;28;20560;-59
2023/06/27 07:13:56;;;;;;;9.20;2.45;;;16.50;99.90;;;;;;5038111;28;20139;-59
2023/06/27 07:16:21;;;;;;;15.88;2.65;;;16.50;99.90;;;;;;5029174;28;20567;-56
2023/06/27 07:18:47;;;;;;;;;;;16.40;99.90;;;;;;5037979;28;20029;-57
2023/06/27 07:21:12;;;;;;;11.90;2.63;;;16.50;99.90;;;;;;5038927;28;20039;-59
2023/06/27 07:23:38;;;;;;;13.63;3.03;;;16.60;99.90;;;;;;5029851;28;20037;-59
2023/06/27 07:26:04;;;;;;;;;;;16.70;99.90;;;;;;5034000;28;20086;-62
2023/06/27 07:28:29;;;;;;;9.18;3.42;;;16.70;99.90;;;;;;5039352;28;19924;-58
2023/06/27 07:30:55;;;;;;;;;;;16.70;99.90;;;;;;5042729;28;20079;-57
2023/06/27 07:33:21;;;;;;;12.75;3.25;;;16.60;99.90;;;;;;5040629;28;19913;-61
2023/06/27 07:35:47;;;;;;;13.00;3.05;;;16.60;99.90;;;;;;5035680;28;20037;-60
2023/06/27 07:38:16;;;;;;;;;;;16.80;99.90;;;;;;5039813;28;20597;-56
2023/06/27 07:40:41;;;;;;;13.15;3.13;;;16.80;99.90;;;;;;5042740;28;20498;-61
2023/06/27 07:43:07;;;;;;;;;;;16.90;99.90;;;;;;5041617;28;20041;-61
2023/06/27 07:45:32;;;;;;;6.43;2.25;;;16.90;99.90;;;;;;5044357;28;19917;-61
2023/06/27 07:47:58;;;;;;;;;;;17.00;99.90;;;;;;5040484;28;20036;-59
2023/06/27 07:50:24;;;;;;;8.30;2.55;;;17.20;99.90;;;;;;5042859;28;19931;-61
2023/06/27 07:52:49;;;;;;;7.97;2.53;;;17.20;99.90;;;;;;5040641;28;20120;-58
2023/06/27 07:55:15;;;;;;;9.48;2.40;;;17.40;99.90;;;;;;5042164;28;20417;-62
2023/06/27 07:57:40;;;;;;;9.50;2.78;;;17.30;99.90;;;;;;5030467;28;20037;-58
2023/06/27 08:00:06;;;;;;;;;;;17.30;99.90;;;;;;5044825;28;20123;-61
2023/06/27 08:02:32;;;;;;;11.63;2.65;;;17.30;99.90;;;;;;5037202;28;19956;-61
2023/06/27 08:04:58;;;;;;;10.27;2.70;;;17.20;99.90;;;;;;5044260;28;20554;-57
2023/06/27 08:07:23;;;;;;;;;;;17.10;99.90;;;;;;5035780;28;20322;-61
2023/06/27 08:09:49;;;;;;;6.32;2.53;;;17.00;99.90;;;;;;5039690;28;19921;-60
2023/06/27 08:12:14;;;;;;;8.90;2.80;;;16.90;99.90;;;;;;5039102;28;20076;-60
2023/06/27 08:14:42;;;;;;;12.27;2.90;;;17.00;99.90;;;;;;5041855;28;20102;-60
2023/06/27 08:17:08;;;;;;;6.63;1.92;;;17.00;99.90;;;;;;5039120;28;20049;-61
2023/06/27 08:19:33;;;;;;;;;;;16.90;99.90;;;;;;5040629;28;20029;-62
2023/06/27 08:21:59;;;;;;;6.53;2.40;;;17.00;99.90;;;;;;5040798;28;19940;-61
2023/06/27 08:24:24;;;;;;;;;;;17.20;99.90;;;;;;5041489;28;20595;-54
2023/06/27 08:26:52;;;;;;;7.38;3.05;;;17.20;99.90;;;;;;5039747;28;20419;-59
2023/06/27 08:29:18;;;;;;;10.75;2.67;;;17.20;99.90;;;;;;5038195;28;20076;-62
2023/06/27 08:31:43;;;;;;;;;;;17.30;99.90;;;;;;5038232;28;20461;-62
2023/06/27 08:34:09;;;;;;;6.80;2.15;;;17.30;99.90;;;;;;5041645;28;19920;-60
2023/06/27 08:36:34;;;;;;;;;;;17.30;99.90;;;;;;5044341;28;20052;-61
2023/06/27 08:39:00;;;;;;;8.98;2.42;;;17.60;99.90;;;;;;5043385;28;19920;-58
2023/06/27 08:41:25;;;;;;;;;;;17.60;99.90;;;;;;5036612;28;20033;-61
2023/06/27 08:43:51;;;;;;;6.88;2.20;;;18.00;99.90;;;;;;5043269;28;19948;-60
2023/06/27 08:46:21;;;;;;;8.52;2.35;;;18.30;98.50;;;;;;5038302;28;20057;-61
2023/06/27 08:48:47;;;;;;;5.63;2.20;;;18.60;98.90;;;;;;5040957;28;20036;-61
2023/06/27 08:51:18;;;;;;;4.95;2.17;;;19.10;97.30;;;;;;5037742;28;20087;-60
2023/06/27 08:53:47;;;;;;;7.78;1.75;;;19.50;94.90;;;;;;5034549;28;20048;-61
2023/06/27 08:56:15;;;;;;;6.50;1.80;;;19.90;96.00;;;;;;5039838;28;20404;-60
2023/06/27 08:58:59;;;;;;;4.90;1.85;;;20.00;95.00;;;;;;5041009;28;20041;-60
2023/06/27 09:01:29;;;;;;;10.52;2.00;;;20.40;94.10;;;;;;5041601;28;20117;-63
2023/06/27 09:03:55;;;;;;;9.32;1.60;;;20.20;95.80;;;;;;5038156;28;20053;-61
2023/06/27 09:06:21;;;;;;;5.78;1.80;;;19.60;95.30;;;;;;5038546;28;20053;-61
2023/06/27 09:08:48;;;;;;;;;;;19.20;96.10;;;;;;5040752;28;20330;-62
2023/06/27 09:11:15;;;;;;;7.05;2.20;;;19.00;96.70;;;;;;5041352;28;19928;-60
2023/06/27 09:13:41;;;;;;;11.88;3.03;;;19.10;95.80;;;;;;5042665;28;20041;-61
2023/06/27 09:16:07;;;;;;;;;;;18.90;95.00;;;;;;5038495;28;20043;-60
2023/06/27 09:18:34;;;;;;;4.45;2.03;;;18.50;95.40;;;;;;5032435;28;19959;-58
2023/06/27 09:21:00;;;;;;;7.72;1.70;;;18.30;95.50;;;;;;5038675;28;20049;-60
2023/06/27 09:23:27;;;;;;;;;;;18.30;96.00;;;;;;5041322;28;20037;-60
2023/06/27 09:26:12;;;;;;;7.97;2.05;;;18.30;96.60;;;;;;5042546;28;20396;-58
2023/06/27 09:28:48;;;;;;;12.52;1.98;;;18.20;95.90;;;;;;5037568;28;20619;-59
2023/06/27 09:31:17;;;;;;;8.90;2.08;;;18.00;96.40;;;;;;5038559;28;20436;-58
2023/06/27 09:33:44;;;;;;;7.57;1.90;;;17.90;96.40;;;;;;5041640;28;20040;-62
2023/06/27 09:36:10;;;;;;;7.32;1.83;;;17.90;97.90;;;;;;5041098;28;20037;-59
2023/06/27 09:38:36;;;;;;;7.07;1.65;;;18.00;97.50;;;;;;5041233;28;20060;-61
2023/06/27 09:41:03;;;;;;;;;;;18.00;96.90;;;;;;5037381;28;20828;-60
2023/06/27 09:43:32;;;;;;;11.02;2.22;;;18.10;96.80;;;;;;5040333;28;19960;-61
2023/06/27 09:45:59;;;;;;;6.25;1.42;;;18.20;96.00;;;;;;5041611;28;20059;-61
2023/06/27 09:48:24;;;;;;;7.97;2.17;;;18.30;96.90;;;;;;5033317;28;20120;-61
2023/06/27 09:50:57;;;;;;;;;;;18.50;97.30;;;;;;5042396;28;20044;-56
2023/06/27 09:53:22;;;;;;;7.03;1.73;;;18.80;96.60;;;;;;5034511;28;20003;-60
2023/06/27 09:55:48;;;;;;;;;;;18.80;95.40;;;;;;5037754;28;20127;-60
2023/06/27 09:58:13;;;;;;;5.82;1.60;;;18.90;96.30;;;;;;5041384;28;19920;-60
2023/06/27 10:00:39;;;;;;;6.40;1.83;;;19.00;94.70;;;;;;5032197;28;20124;-58
2023/06/27 10:03:08;;;;;;;;;;;18.80;94.10;;;;;;5051751;28;20123;-58
2023/06/27 10:05:33;;;;;;;7.70;1.73;;;18.90;94.90;;;;;;5040083;28;20507;-61
2023/06/27 10:07:59;;;;;;;;;;;18.90;96.10;;;;;;5032990;28;20501;-57
2023/06/27 10:10:26;;;;;;;4.43;1.50;;;18.90;94.80;;;;;;5041267;28;19921;-60
2023/06/27 10:12:52;;;;;;;6.78;1.65;;;19.00;94.90;;;;;;5038657;28;20087;-61
2023/06/27 10:15:17;;;;;;;9.07;1.95;;;19.10;94.70;;;;;;5041295;28;20056;-62
2023/06/27 10:17:44;;;;;;;;;;;18.90;93.50;;;;;;5034338;28;20041;-62
2023/06/27 10:20:11;;;;;;;5.45;1.65;;;19.00;95.70;;;;;;5036729;28;19921;-61
2023/06/27 10:22:42;;;;;;;5.88;2.13;;;19.10;95.00;;;;;;5035278;28;20176;-63
2023/06/27 10:25:09;;;;;;;9.55;2.20;;;19.20;94.40;;;;;;5041373;28;20041;-62
2023/06/27 10:27:42;;;;;;;5.30;1.90;;;19.20;95.40;;;;;;5037912;28;20044;-62
2023/06/27 10:30:23;;;;;;;10.27;1.60;;;19.20;94.30;;;;;;5039708;28;20075;-62
2023/06/27 10:32:49;;;;;;;5.18;2.13;;;19.30;94.00;;;;;;5057096;28;20048;-59
2023/06/27 10:35:25;;;;;;;;;;;19.30;95.40;;;;;;5058323;28;20037;-59
2023/06/27 10:38:15;;;;;;;7.03;1.77;;;19.50;93.80;;;;;;5055784;28;20681;-59
2023/06/27 10:41:12;;;;;;;4.75;1.55;;;19.50;95.70;;;;;;5061534;28;20089;-61
2023/06/27 10:43:38;;;;;;;6.57;1.48;;;19.50;94.30;;;;;;5060908;28;20036;-59
2023/06/27 10:46:16;;;;;;;4.28;1.90;;;19.50;93.20;;;;;;5052546;28;20045;-61
2023/06/27 10:48:55;;;;;;;7.43;1.95;;;19.50;93.00;;;;;;5057906;28;20131;-55
2023/06/27 10:51:23;;;;;;;6.80;1.40;;;19.40;92.50;;;;;;5060565;28;20523;-59
2023/06/27 10:54:07;;;;;;;5.18;1.70;;;19.30;93.90;;;;;;5060180;28;20036;-56
2023/06/27 10:56:56;;;;;;;8.50;2.40;;;19.40;93.60;;;;;;5053850;28;20418;-60
2023/06/27 10:59:23;;;;;;;8.82;1.63;;;19.50;93.90;;;;;;5059036;28;20127;-62
2023/06/27 11:01:59;;;;;;;8.00;1.80;;;19.40;93.70;;;;;;5055408;28;20035;-61
2023/06/27 11:04:40;;;;;;;4.97;1.52;;;19.20;95.00;;;;;;5057365;28;20037;-61
2023/06/27 11:07:07;;;;;;;6.85;1.85;;;19.20;94.60;;;;;;5060105;28;20040;-61
2023/06/27 11:09:35;;;;;;;10.90;2.20;;;19.00;93.80;;;;;;5061945;28;20416;-61
2023/06/27 11:12:21;;;;;;;7.57;1.90;;;19.00;94.80;;;;;;5058011;28;20040;-62
2023/06/27 11:14:48;;;;;;;5.80;1.95;;;19.20;95.80;;;;;;5065064;28;20131;-57
2023/06/27 11:17:17;;;;;;;7.50;1.75;;;19.20;96.00;;;;;;5062941;28;20044;-61
2023/06/27 11:19:42;;;;;;;5.05;2.05;;;19.10;95.90;;;;;;5063641;28;20431;-56
2023/06/27 11:22:08;;;;;;;;;;;19.10;95.80;;;;;;5060213;28;20546;-58
2023/06/27 11:24:35;;;;;;;6.80;1.90;;;19.20;95.90;;;;;;5059650;28;19939;-59
2023/06/27 11:27:06;;;;;;;7.65;2.08;;;19.40;95.50;;;;;;5060888;28;20044;-61
2023/06/27 11:29:33;;;;;;;7.05;2.17;;;19.30;93.60;;;;;;5053501;28;20040;-61
2023/06/27 11:31:59;;;;;;;6.88;1.63;;;19.20;93.80;;;;;;5060209;28;20491;-61
2023/06/27 11:34:25;;;;;;;5.97;1.60;;;19.20;93.60;;;;;;5060345;28;20078;-61
2023/06/27 11:36:51;;;;;;;;;;;19.20;95.10;;;;;;5060798;28;20040;-61
2023/06/27 11:39:16;;;;;;;7.20;2.08;;;19.20;93.00;;;;;;5060650;28;19947;-60
2023/06/27 11:41:44;;;;;;;5.35;1.58;;;19.40;93.40;;;;;;5060371;28;20650;-59
2023/06/27 11:44:14;;;;;;;4.30;1.38;;;19.60;94.90;;;;;;5056585;28;20047;-59
2023/06/27 11:46:47;;;;;;;10.95;2.38;;;19.60;92.90;;;;;;5060868;28;20062;-61
2023/06/27 11:49:14;;;;;;;6.85;1.42;;;19.40;94.60;;;;;;5059687;28;20044;-59
2023/06/27 11:51:40;;;;;;;4.70;1.65;;;19.20;94.90;;;;;;5057615;28;20094;-59
2023/06/27 11:54:09;;;;;;;5.38;1.92;;;19.10;93.20;;;;;;5060030;28;20198;-58
2023/06/27 11:56:40;;;;;;;7.30;1.50;;;19.00;93.60;;;;;;5060053;28;20273;-61
2023/06/27 11:59:06;;;;;;;10.35;2.20;;;19.00;94.10;;;;;;5058405;28;20041;-58
2023/06/27 12:01:33;;;;;;;;;;;18.90;94.10;;;;;;5057034;28;20123;-59
2023/06/27 12:03:59;;;;;;;4.53;1.33;;;18.80;94.70;;;;;;5060151;28;19966;-61
2023/06/27 12:06:25;;;;;;;6.25;2.05;;;19.00;95.00;;;;;;5058959;28;20071;-57
2023/06/27 12:08:51;;;;;;;8.27;2.05;;;19.20;94.60;;;;;;5060862;28;20132;-59
2023/06/27 12:11:16;;;;;;;5.75;1.80;;;19.30;96.00;;;;;;5059964;28;20064;-59
2023/06/27 12:13:42;;;;;;;;;;;19.30;94.80;;;;;;5059632;28;20083;-59
2023/06/27 12:16:25;;;;;;;6.38;1.92;;;19.40;93.70;;;;;;5059731;28;20462;-60
2023/06/27 12:18:51;;;;;;;8.20;1.65;;;19.50;93.10;;;;;;5064155;28;20059;-62
2023/06/27 12:21:16;;;;;;;;;;;19.60;93.10;;;;;;5063948;28;20044;-60
2023/06/27 12:23:42;;;;;;;9.50;2.10;;;19.60;93.50;;;;;;5064095;28;19935;-62
2023/06/27 12:26:07;;;;;;;;;;;19.60;93.00;;;;;;5063250;28;20467;-60
2023/06/27 12:28:33;;;;;;;8.27;1.77;;;19.60;94.60;;;;;;5059377;28;19920;-60
2023/06/27 12:30:58;;;;;;;5.60;1.92;;;19.40;92.40;;;;;;5062664;28;20037;-63
2023/06/27 12:33:24;;;;;;;;;;;19.40;93.30;;;;;;5064287;28;20043;-61
2023/06/27 12:35:50;;;;;;;7.15;2.08;;;19.40;93.10;;;;;;5062509;28;19916;-62
2023/06/27 12:38:15;;;;;;;7.40;2.28;;;19.30;93.30;;;;;;5061709;28;20094;-62
2023/06/27 12:40:41;;;;;;;;;;;19.20;93.40;;;;;;5063485;28;20094;-63
2023/06/27 12:43:09;;;;;;;10.15;2.30;;;19.10;94.20;;;;;;5054928;28;20375;-62
2023/06/27 12:45:35;;;;;;;8.43;1.98;;;19.10;94.60;;;;;;5061378;28;20051;-58
2023/06/27 12:48:00;;;;;;;;;;;19.00;93.90;;;;;;5057136;28;20446;-62
2023/06/27 12:50:26;;;;;;;7.05;1.95;;;19.10;95.70;;;;;;5066340;28;20372;-63
2023/06/27 12:52:52;;;;;;;;;;;19.20;94.50;;;;;;5064107;28;20515;-61
2023/06/27 12:55:20;;;;;;;7.95;2.50;;;19.30;95.70;;;;;;5061834;28;19920;-59
2023/06/27 12:57:48;;;;;;;6.53;1.88;;;19.40;94.50;;;;;;5055081;28;20052;-62
2023/06/27 13:00:20;;;;;;;6.05;2.30;;;19.60;94.80;;;;;;5061197;28;20052;-61
2023/06/27 13:02:48;;;;;;;8.57;2.08;;;19.70;94.20;;;;;;5061500;28;20044;-62
2023/06/27 13:05:14;;;;;;;4.78;2.08;;;19.80;94.40;;;;;;5063021;28;20041;-63
2023/06/27 13:07:39;;;;;;;;;;;19.80;94.50;;;;;;5062937;28;20555;-61
2023/06/27 13:10:06;;;;;;;6.38;1.90;;;19.90;94.10;;;;;;5062256;28;20439;-61